createdAt,value
2022-11-17T00:02:51.885Z,-1.03
2022-11-17T00:05:56.321Z,-1.21
2022-11-17T00:09:00.813Z,-1.18
2022-11-17T00:12:24.595Z,-1.18
2022-11-17T00:15:30.707Z,-0.93
2022-11-17T00:18:53.568Z,-0.95
2022-11-17T00:21:58.873Z,-0.98
2022-11-17T00:25:05.107Z,-1.00
2022-11-17T00:28:09.403Z,-1.36
2022-11-17T00:31:35.128Z,-0.69
2022-11-17T00:34:39.715Z,0.83
2022-11-17T00:38:04.266Z,1.41
2022-11-17T00:41:08.640Z,1.69
2022-11-17T00:44:13.757Z,1.98
2022-11-17T00:47:18.151Z,2.49
2022-11-17T00:50:22.213Z,2.26
2022-11-17T00:53:26.896Z,2.36
2022-11-17T00:56:32.424Z,2.66
2022-11-17T00:59:36.681Z,2.69
2022-11-17T01:02:41.298Z,3.24
2022-11-17T01:05:45.716Z,3.12
2022-11-17T01:08:49.864Z,3.38
2022-11-17T01:11:54.797Z,3.61
2022-11-17T01:14:59.014Z,3.66
2022-11-17T01:18:03.406Z,3.31
2022-11-17T01:21:13.272Z,3.82
2022-11-17T01:24:18.508Z,3.94
2022-11-17T01:27:22.847Z,4.10
2022-11-17T01:30:26.973Z,3.88
2022-11-17T01:33:31.757Z,3.32
2022-11-17T01:36:57.815Z,3.36
2022-11-17T01:40:02.222Z,3.08
2022-11-17T01:43:11.869Z,2.82
2022-11-17T01:46:33.725Z,2.99
2022-11-17T01:49:38.231Z,2.77
2022-11-17T01:52:43.337Z,2.77
2022-11-17T01:56:00.390Z,1.55
2022-11-17T01:59:10.284Z,1.73
2022-11-17T02:02:14.383Z,1.58
2022-11-17T02:05:39.587Z,1.22
2022-11-17T02:08:47.499Z,1.26
2022-11-17T02:11:52.151Z,1.35
2022-11-17T02:14:56.663Z,1.23
2022-11-17T02:18:01.929Z,0.95
2022-11-17T02:21:33.853Z,1.18
2022-11-17T02:25:14.221Z,1.32
2022-11-17T02:28:35.272Z,1.24
2022-11-17T02:32:05.215Z,1.62
2022-11-17T02:35:27.565Z,1.94
2022-11-17T02:38:41.594Z,2.14
2022-11-17T02:42:01.759Z,2.35
2022-11-17T02:45:10.683Z,2.43
2022-11-17T02:48:20.663Z,2.44
2022-11-17T02:51:26.065Z,2.34
2022-11-17T02:54:33.589Z,2.22
2022-11-17T02:57:39.979Z,1.90
2022-11-17T03:01:23.203Z,2.09
2022-11-17T03:04:53.043Z,2.21
2022-11-17T03:09:10.344Z,2.02
2022-11-17T03:12:24.667Z,1.98
2022-11-17T03:15:36.850Z,2.14
2022-11-17T03:19:05.543Z,2.21
2022-11-17T03:22:20.284Z,2.37
2022-11-17T03:25:27.811Z,2.44
2022-11-17T03:28:34.149Z,2.37
2022-11-17T03:31:40.380Z,2.46
2022-11-17T03:35:01.526Z,2.52
2022-11-17T03:38:13.696Z,2.26
2022-11-17T03:41:21.078Z,2.54
2022-11-17T03:44:28.187Z,2.34
2022-11-17T03:47:34.818Z,2.56
2022-11-17T03:50:46.943Z,2.60
2022-11-17T03:53:52.226Z,2.39
2022-11-17T03:57:05.703Z,2.35
2022-11-17T04:00:13.062Z,2.46
2022-11-17T04:03:17.137Z,2.51
2022-11-17T04:06:21.959Z,2.23
2022-11-17T04:09:26.274Z,2.14
2022-11-17T04:12:49.027Z,2.40
2022-11-17T04:16:00.003Z,2.13
2022-11-17T04:19:04.287Z,2.45
2022-11-17T04:22:08.725Z,2.29
2022-11-17T04:25:35.906Z,2.47
2022-11-17T04:28:44.488Z,2.81
2022-11-17T04:31:48.690Z,3.00
2022-11-17T04:34:54.780Z,2.80
2022-11-17T04:37:59.218Z,2.65
2022-11-17T04:41:29.719Z,2.56
2022-11-17T04:44:34.200Z,2.22
2022-11-17T04:47:38.509Z,2.36
2022-11-17T04:50:42.669Z,2.10
2022-11-17T04:53:47.420Z,2.31
2022-11-17T04:56:52.281Z,2.46
2022-11-17T04:59:56.610Z,2.25
2022-11-17T05:03:02.085Z,1.96
2022-11-17T05:06:06.577Z,2.01
2022-11-17T05:09:13.416Z,1.97
2022-11-17T05:12:36.101Z,2.01
2022-11-17T05:16:01.016Z,1.90
2022-11-17T05:19:08.390Z,1.81
2022-11-17T05:22:35.156Z,2.02
2022-11-17T05:25:39.325Z,1.67
2022-11-17T05:28:43.634Z,1.43
2022-11-17T05:31:49.115Z,1.63
2022-11-17T05:34:53.317Z,1.31
2022-11-17T05:37:57.603Z,1.50
2022-11-17T05:41:02.177Z,1.38
2022-11-17T05:44:06.706Z,1.29
2022-11-17T05:47:11.168Z,1.57
2022-11-17T05:50:15.659Z,1.42
2022-11-17T05:53:20.476Z,1.52
2022-11-17T05:56:29.211Z,1.51
2022-11-17T05:59:36.212Z,1.58
2022-11-17T06:02:52.913Z,1.50
2022-11-17T06:05:57.531Z,1.51
2022-11-17T06:09:02.088Z,1.45
2022-11-17T06:12:06.704Z,1.57
2022-11-17T06:15:11.578Z,1.56
2022-11-17T06:18:20.442Z,1.67
2022-11-17T06:21:24.708Z,1.46
2022-11-17T06:24:29.892Z,1.51
2022-11-17T06:27:35.062Z,1.48
2022-11-17T06:30:41.228Z,1.29
2022-11-17T06:33:46.493Z,1.40
2022-11-17T06:36:50.975Z,1.17
2022-11-17T06:39:55.074Z,1.11
2022-11-17T06:43:09.041Z,1.18
2022-11-17T06:46:13.226Z,1.11
2022-11-17T06:49:17.748Z,1.00
2022-11-17T06:52:21.890Z,1.04
2022-11-17T06:55:27.076Z,0.92
2022-11-17T06:58:31.688Z,1.01
2022-11-17T07:01:36.039Z,1.08
2022-11-17T07:04:40.669Z,0.87
2022-11-17T07:07:45.036Z,0.68
2022-11-17T07:10:55.544Z,0.51
2022-11-17T07:13:59.672Z,0.51
2022-11-17T07:17:04.233Z,0.63
2022-11-17T07:20:09.671Z,0.51
2022-11-17T07:23:14.901Z,0.42
2022-11-17T07:26:19.373Z,0.35
2022-11-17T07:29:24.541Z,0.20
2022-11-17T07:32:29.565Z,-0.16
2022-11-17T07:35:33.744Z,0.36
2022-11-17T07:38:40.410Z,-0.03
2022-11-17T07:41:46.013Z,0.09
2022-11-17T07:44:50.313Z,0.07
2022-11-17T07:47:59.536Z,-0.13
2022-11-17T07:51:05.288Z,-0.19
2022-11-17T07:54:09.743Z,-0.04
2022-11-17T07:57:13.997Z,-0.19
2022-11-17T08:00:18.334Z,-0.33
2022-11-17T08:03:24.617Z,-0.34
2022-11-17T08:06:29.122Z,-0.54
2022-11-17T08:09:33.362Z,-0.52
2022-11-17T08:12:38.097Z,-0.57
2022-11-17T08:15:42.665Z,-0.76
2022-11-17T08:18:52.034Z,-0.68
2022-11-17T08:21:57.336Z,-0.84
2022-11-17T08:25:01.896Z,-0.97
2022-11-17T08:28:06.492Z,-1.05
2022-11-17T08:31:10.874Z,-1.13
2022-11-17T08:34:15.573Z,-1.11
2022-11-17T08:37:21.588Z,-1.28
2022-11-17T08:40:27.355Z,-1.32
2022-11-17T08:43:32.287Z,-1.35
2022-11-17T08:46:39.369Z,-1.42
2022-11-17T08:49:45.231Z,-1.35
2022-11-17T08:52:49.813Z,-1.24
2022-11-17T08:55:54.170Z,-1.43
2022-11-17T08:58:58.513Z,-1.44
2022-11-17T09:02:03.094Z,-1.38
2022-11-17T09:05:08.132Z,-1.35
2022-11-17T09:11:38.864Z,-1.76
2022-11-17T09:14:44.392Z,-1.65
2022-11-17T09:17:49.504Z,-1.53
2022-11-17T09:21:01.332Z,-1.56
2022-11-17T09:24:06.262Z,-1.91
2022-11-17T09:27:10.448Z,-1.87
2022-11-17T09:30:15.435Z,-1.99
2022-11-17T09:33:20.850Z,-1.98
2022-11-17T09:36:25.419Z,-1.93
2022-11-17T09:39:29.840Z,-1.73
2022-11-17T09:42:40.226Z,-1.68
2022-11-17T09:45:48.423Z,-2.05
2022-11-17T09:49:13.177Z,-1.91
2022-11-17T09:52:23.950Z,-1.88
2022-11-17T09:55:34.557Z,-1.90
2022-11-17T09:58:53.477Z,-2.05
2022-11-17T10:01:58.622Z,-1.82
2022-11-17T10:05:03.208Z,-1.99
2022-11-17T10:08:16.878Z,-2.11
2022-11-17T10:11:33.367Z,-2.22
2022-11-17T10:14:41.009Z,-2.25
2022-11-17T10:17:45.109Z,-2.28
2022-11-17T10:20:49.879Z,-2.36
2022-11-17T10:23:59.447Z,-2.20
2022-11-17T10:27:28.886Z,-2.30
2022-11-17T10:30:39.194Z,-2.35
2022-11-17T10:33:46.385Z,-2.27
2022-11-17T10:36:51.406Z,-2.27
2022-11-17T10:40:22.030Z,-2.34
2022-11-17T10:43:34.996Z,-2.48
2022-11-17T10:47:08.056Z,-2.21
2022-11-17T10:50:26.297Z,-2.14
2022-11-17T10:53:45.674Z,-2.30
2022-11-17T10:56:58.576Z,-2.16
2022-11-17T11:00:04.611Z,-2.15
2022-11-17T11:03:22.783Z,-3.09
2022-11-17T11:06:32.935Z,-2.18
2022-11-17T11:09:52.765Z,-2.19
2022-11-17T11:13:07.576Z,-2.30
2022-11-17T11:16:13.067Z,-2.29
2022-11-17T11:19:20.991Z,-2.53
2022-11-17T11:22:56.210Z,-2.47
2022-11-17T11:26:09.680Z,-2.71
2022-11-17T11:29:43.517Z,-2.50
2022-11-17T11:33:06.238Z,-2.69
2022-11-17T11:36:25.575Z,-2.65
2022-11-17T11:40:11.852Z,-2.83
2022-11-17T11:43:53.361Z,-2.67
2022-11-17T11:47:06.138Z,-2.63
2022-11-17T11:50:16.229Z,-2.38
2022-11-17T11:53:44.653Z,-2.59
2022-11-17T11:56:52.555Z,-2.72
2022-11-17T12:00:20.338Z,-2.69
2022-11-17T12:03:49.849Z,-2.70
2022-11-17T12:07:21.418Z,-2.79
2022-11-17T12:10:32.229Z,-2.94
2022-11-17T12:13:45.408Z,-3.46
2022-11-17T12:17:04.778Z,-3.79
2022-11-17T12:20:50.178Z,-3.94
2022-11-17T12:24:22.333Z,-3.93
2022-11-17T12:27:35.789Z,-4.18
2022-11-17T12:30:45.944Z,-4.40
2022-11-17T12:33:57.128Z,-4.39
2022-11-17T12:37:22.716Z,-4.30
2022-11-17T12:40:53.749Z,-4.12
2022-11-17T12:44:47.065Z,-4.12
2022-11-17T12:48:18.124Z,-3.64
2022-11-17T12:51:27.594Z,-3.51
2022-11-17T12:54:40.336Z,-3.50
2022-11-17T12:57:50.248Z,-3.31
2022-11-17T13:01:06.201Z,-3.14
2022-11-17T13:04:13.556Z,-3.17
2022-11-17T13:07:27.210Z,-3.39
2022-11-17T13:10:33.782Z,-2.99
2022-11-17T13:13:41.279Z,-3.14
2022-11-17T13:16:52.276Z,-3.20
2022-11-17T13:20:30.235Z,-3.24
2022-11-17T13:23:35.242Z,-3.07
2022-11-17T13:26:39.729Z,-3.25
2022-11-17T13:29:44.212Z,-3.39
2022-11-17T13:32:48.811Z,-3.05
2022-11-17T13:36:25.945Z,-3.05
2022-11-17T13:39:30.110Z,-3.58
2022-11-17T13:42:35.952Z,-4.00
2022-11-17T13:45:41.404Z,-4.27
2022-11-17T13:48:48.200Z,-4.21
2022-11-17T13:51:52.793Z,-4.40
2022-11-17T13:54:57.716Z,-4.68
2022-11-17T13:58:09.032Z,-4.47
2022-11-17T14:01:16.715Z,-4.57
2022-11-17T14:04:25.057Z,-4.88
2022-11-17T14:07:36.029Z,-4.56
2022-11-17T14:10:41.733Z,-4.10
2022-11-17T14:13:47.067Z,-3.46
2022-11-17T14:16:51.702Z,-3.30
2022-11-17T14:19:56.356Z,-3.24
2022-11-17T14:23:14.336Z,-3.02
2022-11-17T14:26:24.319Z,-3.51
2022-11-17T14:29:29.536Z,-3.55
2022-11-17T14:32:35.847Z,-3.49
2022-11-17T14:35:40.410Z,-3.67
2022-11-17T14:38:46.376Z,-3.73
2022-11-17T14:41:52.349Z,-3.78
2022-11-17T14:44:56.676Z,-4.16
2022-11-17T14:48:01.156Z,-4.54
2022-11-17T14:51:05.700Z,-4.20
2022-11-17T14:54:10.208Z,-4.56
2022-11-17T14:57:14.547Z,-4.19
2022-11-17T15:00:20.693Z,-3.79
2022-11-17T15:03:27.409Z,-3.80
2022-11-17T15:06:32.399Z,-3.94
2022-11-17T15:09:36.671Z,-3.79
2022-11-17T15:12:40.959Z,-3.70
2022-11-17T15:15:45.472Z,-3.54
2022-11-17T15:18:50.201Z,-3.44
2022-11-17T15:21:55.009Z,-3.19
2022-11-17T15:24:59.675Z,-3.20
2022-11-17T15:28:04.111Z,-3.41
2022-11-17T15:31:14.037Z,-3.41
2022-11-17T15:34:20.441Z,-3.43
2022-11-17T15:37:24.829Z,-3.05
2022-11-17T15:40:29.142Z,-3.09
2022-11-17T15:43:36.875Z,-3.10
2022-11-17T15:46:47.165Z,-3.22
2022-11-17T15:49:59.234Z,-3.59
2022-11-17T15:53:04.972Z,-3.53
2022-11-17T15:56:17.396Z,-3.39
2022-11-17T15:59:21.850Z,-3.36
2022-11-17T16:02:26.014Z,-3.23
2022-11-17T16:05:30.631Z,-3.31
2022-11-17T16:08:35.380Z,-3.74
2022-11-17T16:11:40.532Z,-3.66
2022-11-17T16:14:45.064Z,-3.72
2022-11-17T16:17:49.431Z,-4.03
2022-11-17T16:20:54.180Z,-3.80
2022-11-17T16:24:01.544Z,-3.70
2022-11-17T16:27:05.822Z,-3.86
2022-11-17T16:30:14.083Z,-3.73
2022-11-17T16:33:18.479Z,-3.13
2022-11-17T16:36:25.453Z,-2.96
2022-11-17T16:39:29.927Z,-2.94
2022-11-17T16:42:34.236Z,-2.88
2022-11-17T16:45:45.874Z,-2.31
2022-11-17T16:48:51.024Z,-1.99
2022-11-17T16:51:55.543Z,-2.06
2022-11-17T16:55:04.619Z,-2.24
2022-11-17T16:58:12.115Z,-1.94
2022-11-17T17:01:19.462Z,-2.21
2022-11-17T17:04:23.954Z,-2.39
2022-11-17T17:07:28.552Z,-2.31
2022-11-17T17:10:34.879Z,-2.45
2022-11-17T17:13:39.823Z,-2.29
2022-11-17T17:16:44.718Z,-2.53
2022-11-17T17:19:49.137Z,-2.14
2022-11-17T17:22:56.857Z,-2.10
2022-11-17T17:26:10.395Z,-1.94
2022-11-17T17:29:15.023Z,-1.81
2022-11-17T17:32:19.847Z,-1.71
2022-11-17T17:35:24.105Z,-1.95
2022-11-17T17:38:29.307Z,-2.25
2022-11-17T17:41:40.334Z,-2.44
2022-11-17T17:44:44.721Z,-2.43
2022-11-17T17:47:48.961Z,-2.27
2022-11-17T17:50:53.371Z,-2.08
2022-11-17T17:54:01.611Z,-2.10
2022-11-17T17:57:05.942Z,-1.99
2022-11-17T18:00:10.701Z,-2.06
2022-11-17T18:03:15.567Z,-1.83
2022-11-17T18:06:22.024Z,-2.04
2022-11-17T18:09:28.324Z,-2.07
2022-11-17T18:12:32.883Z,-2.13
2022-11-17T18:15:41.111Z,-2.45
2022-11-17T18:18:47.137Z,-2.28
2022-11-17T18:21:51.634Z,-2.42
2022-11-17T18:24:58.293Z,-2.06
2022-11-17T18:28:03.878Z,-1.94
2022-11-17T18:31:09.299Z,-1.80
2022-11-17T18:34:16.569Z,-1.54
2022-11-17T18:37:20.508Z,-1.64
2022-11-17T18:40:24.948Z,-1.86
2022-11-17T18:43:31.848Z,-1.89
2022-11-17T18:46:36.375Z,-1.58
2022-11-17T18:49:40.757Z,-1.60
2022-11-17T18:52:45.225Z,-1.64
2022-11-17T18:55:49.646Z,-1.61
2022-11-17T18:58:54.316Z,-1.62
2022-11-17T19:01:58.724Z,-1.62
2022-11-17T19:05:02.760Z,-1.72
2022-11-17T19:08:07.044Z,-1.40
2022-11-17T19:11:13.159Z,-1.56
2022-11-17T19:14:17.398Z,-1.50
2022-11-17T19:17:22.172Z,-1.43
2022-11-17T19:20:28.011Z,-1.84
2022-11-17T19:23:47.976Z,-1.84
2022-11-17T19:26:55.769Z,-1.77
2022-11-17T19:30:20.065Z,-1.87
2022-11-17T19:33:24.711Z,-1.50
2022-11-17T19:36:31.643Z,-1.43
2022-11-17T19:39:36.951Z,-1.50
2022-11-17T19:42:42.629Z,-1.44
2022-11-17T19:45:46.706Z,-1.29
2022-11-17T19:48:51.013Z,-1.34
2022-11-17T19:51:55.470Z,-1.24
2022-11-17T19:54:59.641Z,-1.19
2022-11-17T19:58:04.142Z,-1.18
2022-11-17T20:01:14.137Z,-1.35
2022-11-17T20:04:18.684Z,-1.33
2022-11-17T20:07:23.283Z,-1.79
2022-11-17T20:10:28.049Z,-1.78
2022-11-17T20:13:33.378Z,-1.91
2022-11-17T20:16:39.604Z,-1.77
2022-11-17T20:19:43.968Z,-1.63
2022-11-17T20:22:48.774Z,-1.75
2022-11-17T20:25:53.164Z,-1.53
2022-11-17T20:28:58.877Z,-1.54
2022-11-17T20:32:03.223Z,-1.38
2022-11-17T20:35:08.079Z,-1.47
2022-11-17T20:38:15.670Z,-1.31
2022-11-17T20:41:21.898Z,-1.17
2022-11-17T20:44:26.450Z,-1.22
2022-11-17T20:47:31.594Z,-1.35
2022-11-17T20:50:36.207Z,-1.23
2022-11-17T20:53:40.893Z,-1.40
2022-11-17T20:56:45.416Z,-1.38
2022-11-17T20:59:49.673Z,-1.64
2022-11-17T21:02:54.098Z,-1.86
2022-11-17T21:06:00.417Z,-1.51
2022-11-17T21:09:05.516Z,-1.27
2022-11-17T21:12:10.025Z,-1.42
2022-11-17T21:15:14.727Z,-1.43
2022-11-17T21:18:25.333Z,-1.46
2022-11-17T21:21:29.811Z,-1.42
2022-11-17T21:24:34.523Z,-1.50
2022-11-17T21:27:38.842Z,-1.50
2022-11-17T21:30:43.433Z,-1.35
2022-11-17T21:33:48.078Z,-1.37
2022-11-17T21:36:54.349Z,-1.28
2022-11-17T21:40:01.972Z,-1.21
2022-11-17T21:43:07.054Z,-1.27
2022-11-17T21:46:14.795Z,-1.10
2022-11-17T21:49:19.280Z,-1.19
2022-11-17T21:52:23.687Z,-1.21
2022-11-17T21:55:28.150Z,-1.22
2022-11-17T21:58:33.028Z,-1.11
2022-11-17T22:01:38.129Z,-1.14
2022-11-17T22:04:42.423Z,-1.60
2022-11-17T22:07:46.607Z,-1.39
2022-11-17T22:10:51.204Z,-1.75
2022-11-17T22:13:55.491Z,-1.60
2022-11-17T22:16:59.935Z,-1.83
2022-11-17T22:20:05.087Z,-1.70
2022-11-17T22:23:09.620Z,-1.86
2022-11-17T22:26:13.825Z,-1.89
2022-11-17T22:29:20.917Z,-1.82
2022-11-17T22:32:25.595Z,-1.99
2022-11-17T22:35:31.876Z,-2.05
2022-11-17T22:38:36.231Z,-2.04
2022-11-17T22:41:41.467Z,-2.08
2022-11-17T22:44:46.164Z,-2.09
2022-11-17T22:47:50.378Z,-1.93
2022-11-17T22:50:54.688Z,-1.95
2022-11-17T22:53:58.760Z,-2.04
2022-11-17T22:57:03.494Z,-2.00
2022-11-17T23:00:09.042Z,-1.91
2022-11-17T23:03:13.806Z,-2.04
2022-11-17T23:06:18.603Z,-1.89
2022-11-17T23:09:22.758Z,-1.78
2022-11-17T23:12:27.512Z,-1.53
2022-11-17T23:15:33.377Z,-1.70
2022-11-17T23:18:37.864Z,-1.57
2022-11-17T23:21:42.828Z,-1.44
2022-11-17T23:24:47.071Z,-1.50
2022-11-17T23:27:51.488Z,-1.60
2022-11-17T23:31:03.814Z,-1.41
2022-11-17T23:34:11.600Z,-1.54
2022-11-17T23:37:15.906Z,-1.33
2022-11-17T23:40:20.389Z,-1.20
2022-11-17T23:43:25.048Z,-0.99
2022-11-17T23:46:29.498Z,-1.18
2022-11-17T23:49:34.006Z,-1.21
2022-11-17T23:52:38.824Z,-1.13
2022-11-17T23:55:43.056Z,-1.30
2022-11-17T23:58:47.570Z,-1.14
